Time;durP1;ratioP1;P1;durP2;ratioP2;P2;SDS_P1;SDS_P2;PMS_P1;PMS_P2;Temp;Humidity;BMP_temperature;BMP_pressure;BME280_temperature;BME280_humidity;BME280_pressure;Samples;Min_cycle;Max_cycle;Signal;HPM_P1;HPM_P2
2023/05/12 00:02:04;;;;;;;12.83;11.57;;;9.40;99.90;;;;;;5092404;28;20215;-73
2023/05/12 00:04:34;;;;;;;14.37;12.33;;;9.40;99.90;;;;;;5093314;28;20206;-75
2023/05/12 00:07:05;;;;;;;13.97;12.47;;;9.40;99.90;;;;;;5095696;28;20282;-74
2023/05/12 00:09:33;;;;;;;14.10;12.60;;;9.40;99.90;;;;;;5092179;28;20302;-74
2023/05/12 00:12:03;;;;;;;13.93;12.43;;;9.40;99.90;;;;;;5092424;28;20230;-75
2023/05/12 00:14:31;;;;;;;13.77;12.33;;;9.40;99.90;;;;;;5092999;28;20293;-74
2023/05/12 00:16:59;;;;;;;14.13;12.67;;;9.40;99.90;;;;;;5091461;28;20195;-77
2023/05/12 00:19:27;;;;;;;14.13;12.00;;;9.40;99.90;;;;;;5072523;28;20204;-75
2023/05/12 00:21:55;;;;;;;12.53;10.97;;;9.40;99.90;;;;;;5072608;28;20282;-76
2023/05/12 00:24:24;;;;;;;12.27;11.00;;;9.40;99.90;;;;;;5072577;28;20669;-75
2023/05/12 00:26:53;;;;;;;11.77;10.57;;;9.30;99.90;;;;;;5084166;28;20250;-74
2023/05/12 00:29:22;;;;;;;9.00;8.10;;;9.40;99.90;;;;;;5092581;28;20207;-74
2023/05/12 00:31:51;;;;;;;6.77;5.83;;;9.30;99.90;;;;;;5092474;28;20315;-75
2023/05/12 00:34:19;;;;;;;7.07;6.37;;;9.20;99.90;;;;;;5091982;28;20631;-76
2023/05/12 00:36:47;;;;;;;6.17;5.57;;;9.20;99.90;;;;;;5072359;28;20214;-74
2023/05/12 00:39:15;;;;;;;7.67;6.20;;;9.20;99.90;;;;;;5073059;28;20667;-77
2023/05/12 00:41:43;;;;;;;6.93;6.27;;;9.10;99.90;;;;;;5072550;28;20653;-76
2023/05/12 00:44:11;;;;;;;8.03;6.97;;;9.10;99.90;;;;;;5074657;28;21285;-75
2023/05/12 00:46:41;;;;;;;9.67;7.10;;;9.10;99.90;;;;;;5092775;28;20255;-74
2023/05/12 00:49:09;;;;;;;10.27;9.00;;;9.10;99.90;;;;;;5091197;28;20563;-76
2023/05/12 00:51:37;;;;;;;9.80;8.80;;;9.10;99.90;;;;;;5092768;28;20207;-77
2023/05/12 00:54:05;;;;;;;9.53;8.53;;;9.10;99.90;;;;;;5092293;28;20206;-74
2023/05/12 00:56:38;;;;;;;9.90;8.60;;;9.10;99.90;;;;;;5085765;28;20214;-74
2023/05/12 00:59:06;;;;;;;11.23;10.03;;;9.20;99.90;;;;;;5072241;28;20247;-73
2023/05/12 01:01:35;;;;;;;14.70;11.67;;;9.20;99.90;;;;;;5072278;28;20298;-75
2023/05/12 01:04:05;;;;;;;18.80;12.43;;;9.20;99.90;;;;;;5087315;28;20499;-74
2023/05/12 01:06:38;;;;;;;14.60;12.70;;;9.20;99.90;;;;;;5092212;28;20213;-76
2023/05/12 01:09:07;;;;;;;13.23;11.87;;;9.20;99.90;;;;;;5093108;28;20198;-76
2023/05/12 01:11:35;;;;;;;15.60;12.57;;;9.20;99.90;;;;;;5092808;28;20225;-75
2023/05/12 01:14:03;;;;;;;13.20;11.80;;;9.20;99.90;;;;;;5092910;28;20632;-75
2023/05/12 01:16:36;;;;;;;16.53;12.60;;;9.20;99.90;;;;;;5092601;28;20207;-76
2023/05/12 01:19:07;;;;;;;18.40;13.30;;;9.20;99.90;;;;;;5094828;28;20207;-73
2023/05/12 01:21:35;;;;;;;5.83;5.07;;;9.10;99.90;;;;;;5095055;28;20690;-76
2023/05/12 01:24:08;;;;;;;6.27;5.30;;;9.10;99.90;;;;;;5094127;28;20285;-74
2023/05/12 01:26:38;;;;;;;6.30;5.43;;;9.10;99.90;;;;;;5092756;28;20218;-76
2023/05/12 01:29:07;;;;;;;6.83;6.13;;;9.00;99.90;;;;;;5096588;28;20217;-76
2023/05/12 01:31:35;;;;;;;7.97;6.80;;;9.00;99.90;;;;;;5098638;28;20261;-75
2023/05/12 01:34:03;;;;;;;8.37;7.00;;;9.00;99.90;;;;;;5106092;28;20520;-77
2023/05/12 01:36:32;;;;;;;7.50;6.60;;;9.00;99.90;;;;;;5100264;28;20689;-76
2023/05/12 01:39:00;;;;;;;8.43;7.23;;;9.00;99.90;;;;;;5098264;28;20211;-77
2023/05/12 01:41:28;;;;;;;8.60;7.60;;;9.00;99.90;;;;;;5097993;28;20207;-73
2023/05/12 01:43:57;;;;;;;8.67;7.77;;;9.00;99.90;;;;;;5099575;28;20669;-75
2023/05/12 01:46:25;;;;;;;8.60;7.77;;;9.00;99.90;;;;;;5099698;28;20207;-75
2023/05/12 01:48:53;;;;;;;9.70;8.70;;;9.00;99.90;;;;;;5097733;28;20630;-74
2023/05/12 01:51:21;;;;;;;10.37;9.33;;;9.00;99.90;;;;;;5096768;28;20683;-75
2023/05/12 01:53:49;;;;;;;11.27;8.93;;;9.00;99.90;;;;;;5096901;28;20242;-77
2023/05/12 01:56:17;;;;;;;10.10;8.40;;;9.00;99.90;;;;;;5095593;28;20211;-76
2023/05/12 01:58:45;;;;;;;10.13;9.13;;;9.00;99.90;;;;;;5096175;28;20226;-75
2023/05/12 02:01:15;;;;;;;8.67;7.77;;;9.00;99.90;;;;;;5096092;28;20218;-74
2023/05/12 02:03:43;;;;;;;8.60;7.50;;;9.10;99.90;;;;;;5096665;28;20199;-73
2023/05/12 02:06:11;;;;;;;8.23;7.37;;;9.10;99.90;;;;;;5098816;28;20690;-75
2023/05/12 02:08:39;;;;;;;8.33;6.77;;;9.00;99.90;;;;;;5098730;28;20617;-77
2023/05/12 02:11:08;;;;;;;8.00;7.20;;;9.00;99.90;;;;;;5097739;28;20222;-74
2023/05/12 02:13:36;;;;;;;8.33;7.30;;;9.00;99.90;;;;;;5094821;28;20566;-73
2023/05/12 02:16:05;;;;;;;8.47;7.50;;;9.00;99.90;;;;;;5095993;28;20206;-76
2023/05/12 02:18:35;;;;;;;9.10;8.00;;;9.00;99.90;;;;;;5096225;28;20221;-79
2023/05/12 02:21:03;;;;;;;10.10;9.10;;;9.00;99.90;;;;;;5095150;28;20210;-73
2023/05/12 02:23:31;;;;;;;10.00;8.70;;;9.00;99.90;;;;;;5095038;28;20206;-75
2023/05/12 02:25:59;;;;;;;11.67;9.77;;;9.00;99.90;;;;;;5095803;28;20587;-80
2023/05/12 02:28:27;;;;;;;12.97;9.57;;;9.00;99.90;;;;;;5094509;28;20227;-77
2023/05/12 02:30:55;;;;;;;11.00;9.80;;;9.00;99.90;;;;;;5093831;28;20704;-77
2023/05/12 02:33:23;;;;;;;11.47;9.57;;;9.00;99.90;;;;;;5094807;28;20630;-78
2023/05/12 02:35:53;;;;;;;12.23;10.57;;;9.00;99.90;;;;;;5095009;28;20202;-75
2023/05/12 02:38:21;;;;;;;13.23;10.73;;;9.00;99.90;;;;;;5093775;28;20199;-77
2023/05/12 02:40:49;;;;;;;11.17;9.90;;;9.00;99.90;;;;;;5093803;28;20680;-77
2023/05/12 02:43:17;;;;;;;12.33;9.73;;;9.00;99.90;;;;;;5094404;28;20253;-76
2023/05/12 02:45:45;;;;;;;13.97;9.90;;;9.00;99.90;;;;;;5093543;28;20579;-78
2023/05/12 02:48:13;;;;;;;12.07;9.60;;;9.00;99.90;;;;;;5094444;28;20233;-77
2023/05/12 02:50:42;;;;;;;10.90;8.97;;;9.00;99.90;;;;;;5094637;28;20206;-79
2023/05/12 02:53:11;;;;;;;11.10;9.40;;;9.00;99.90;;;;;;5094381;28;20210;-79
2023/05/12 02:55:39;;;;;;;13.00;9.57;;;9.10;99.90;;;;;;5093335;28;20207;-79
2023/05/12 02:58:07;;;;;;;11.87;9.23;;;9.10;99.90;;;;;;5094143;28;20634;-74
2023/05/12 03:00:35;;;;;;;10.70;9.60;;;9.10;99.90;;;;;;5093681;28;20210;-74
2023/05/12 03:03:03;;;;;;;13.63;11.07;;;9.10;99.90;;;;;;5093802;28;20225;-77
2023/05/12 03:05:32;;;;;;;13.27;11.17;;;9.10;99.90;;;;;;5093261;28;20206;-76
2023/05/12 03:08:00;;;;;;;16.43;11.40;;;9.20;99.90;;;;;;5094036;28;20233;-79
2023/05/12 03:10:29;;;;;;;12.80;11.43;;;9.10;99.90;;;;;;5094251;28;20609;-76
2023/05/12 03:12:57;;;;;;;12.67;11.30;;;9.10;99.90;;;;;;5092611;28;20582;-77
2023/05/12 03:15:25;;;;;;;14.23;12.73;;;9.10;99.90;;;;;;5093779;28;20214;-79
2023/05/12 03:17:53;;;;;;;13.73;12.03;;;9.10;99.90;;;;;;5094034;28;20215;-76
2023/05/12 03:20:21;;;;;;;13.13;11.63;;;9.10;99.90;;;;;;5093780;28;20271;-72
2023/05/12 03:22:50;;;;;;;15.70;12.50;;;9.10;99.90;;;;;;5092693;28;20878;-72
2023/05/12 03:25:18;;;;;;;14.40;12.53;;;9.10;99.90;;;;;;5093702;28;20199;-73
2023/05/12 03:27:47;;;;;;;13.57;12.10;;;9.20;99.90;;;;;;5093658;28;20298;-79
2023/05/12 03:30:15;;;;;;;12.97;11.57;;;9.10;99.90;;;;;;5093429;28;20607;-75
2023/05/12 03:32:45;;;;;;;16.30;12.63;;;9.20;99.90;;;;;;5092515;28;20207;-77
2023/05/12 03:35:13;;;;;;;14.13;12.63;;;9.20;99.90;;;;;;5093827;28;20213;-77
2023/05/12 03:37:41;;;;;;;15.80;13.97;;;9.20;99.90;;;;;;5093471;28;20210;-77
2023/05/12 03:40:10;;;;;;;14.63;12.50;;;9.20;99.90;;;;;;5092742;28;20227;-73
2023/05/12 03:42:38;;;;;;;16.97;13.13;;;9.10;99.90;;;;;;5092866;28;20214;-74
2023/05/12 03:45:09;;;;;;;15.07;13.07;;;9.10;99.90;;;;;;5093532;28;20207;-74
2023/05/12 03:47:39;;;;;;;15.67;13.43;;;9.10;99.90;;;;;;5093074;28;20207;-78
2023/05/12 03:50:08;;;;;;;14.83;12.80;;;9.00;99.90;;;;;;5093106;28;20622;-79
2023/05/12 03:52:37;;;;;;;13.97;12.40;;;9.10;99.90;;;;;;5092206;28;20225;-79
2023/05/12 03:55:06;;;;;;;16.43;13.17;;;9.00;99.90;;;;;;5092897;28;20677;-78
2023/05/12 03:57:35;;;;;;;16.77;13.13;;;9.00;99.90;;;;;;5092515;28;20289;-77
2023/05/12 04:00:04;;;;;;;14.90;13.00;;;9.00;99.90;;;;;;5092744;28;20239;-80
2023/05/12 04:02:33;;;;;;;13.13;11.13;;;9.00;99.90;;;;;;5092731;28;20297;-74
2023/05/12 04:05:01;;;;;;;19.50;17.50;;;8.90;99.90;;;;;;5093050;28;20213;-79
2023/05/12 04:07:29;;;;;;;17.73;15.93;;;8.90;99.90;;;;;;5091832;28;20617;-79
2023/05/12 04:09:58;;;;;;;14.70;13.20;;;8.90;99.90;;;;;;5094325;28;20269;-75
2023/05/12 04:12:25;;;;;;;13.53;12.03;;;8.90;99.90;;;;;;5092218;28;20218;-77
2023/05/12 04:14:54;;;;;;;13.73;12.20;;;8.90;99.90;;;;;;5090669;28;20294;-78
2023/05/12 04:17:22;;;;;;;12.77;11.47;;;8.90;99.90;;;;;;5081103;28;20218;-76
2023/05/12 04:19:52;;;;;;;12.80;10.53;;;8.90;99.90;;;;;;5093131;28;20400;-77
2023/05/12 04:22:20;;;;;;;11.90;10.70;;;8.90;99.90;;;;;;5092159;28;20432;-78
2023/05/12 04:24:51;;;;;;;12.43;11.13;;;8.90;99.90;;;;;;5091618;28;20203;-74
2023/05/12 04:27:19;;;;;;;11.77;10.57;;;8.90;99.90;;;;;;5092208;28;20214;-77
2023/05/12 04:29:48;;;;;;;10.97;9.83;;;9.00;99.90;;;;;;5092277;28;20254;-76
2023/05/12 04:32:16;;;;;;;11.17;10.07;;;9.00;99.90;;;;;;5090928;28;20218;-77
2023/05/12 04:34:44;;;;;;;10.17;9.13;;;9.00;99.90;;;;;;5078688;28;20222;-77
2023/05/12 04:37:14;;;;;;;10.63;9.63;;;8.90;99.90;;;;;;5073057;28;20239;-75
2023/05/12 04:39:42;;;;;;;11.47;9.30;;;8.90;99.90;;;;;;5075026;28;20245;-78
2023/05/12 04:42:10;;;;;;;11.67;9.77;;;8.90;99.90;;;;;;5092423;28;20696;-78
2023/05/12 04:44:38;;;;;;;10.27;9.27;;;8.90;99.90;;;;;;5093256;28;20520;-76
2023/05/12 04:47:06;;;;;;;10.33;8.27;;;9.00;99.90;;;;;;5093342;28;20732;-75
2023/05/12 04:49:34;;;;;;;10.73;9.40;;;9.00;99.90;;;;;;5092282;28;20237;-78
2023/05/12 04:52:04;;;;;;;9.60;8.70;;;9.00;99.90;;;;;;5092721;28;20214;-75
2023/05/12 04:54:33;;;;;;;10.50;9.40;;;9.00;99.90;;;;;;5092617;28;20332;-77
2023/05/12 04:57:02;;;;;;;10.57;9.57;;;9.00;99.90;;;;;;5092290;28;20203;-80
2023/05/12 04:59:30;;;;;;;9.93;8.93;;;9.10;99.90;;;;;;5091718;28;20207;-79
2023/05/12 05:01:58;;;;;;;10.60;9.50;;;9.10;99.90;;;;;;5093645;28;20617;-78
2023/05/12 05:04:26;;;;;;;10.00;9.00;;;9.10;99.90;;;;;;5097468;28;20198;-77
2023/05/12 05:06:55;;;;;;;10.63;9.63;;;9.20;99.90;;;;;;5095478;28;20221;-76
2023/05/12 05:09:23;;;;;;;9.47;8.47;;;9.20;99.90;;;;;;5096069;28;20580;-80
2023/05/12 05:11:52;;;;;;;10.30;8.80;;;9.20;99.90;;;;;;5083193;28;20621;-73
2023/05/12 05:14:20;;;;;;;9.33;8.43;;;9.20;99.90;;;;;;5095102;28;20218;-76
2023/05/12 05:16:49;;;;;;;9.23;8.33;;;9.30;99.90;;;;;;5096177;28;20245;-76
2023/05/12 05:19:17;;;;;;;9.47;8.40;;;9.40;99.90;;;;;;5096058;28;20209;-80
2023/05/12 05:22:02;;;;;;;8.87;8.07;;;9.40;99.90;;;;;;5095852;28;20240;-78
2023/05/12 05:24:30;;;;;;;8.93;8.13;;;9.50;99.90;;;;;;5095314;28;20213;-78
2023/05/12 05:26:59;;;;;;;10.00;9.00;;;9.50;99.90;;;;;;5096030;28;20541;-75
2023/05/12 05:29:27;;;;;;;9.33;8.43;;;9.50;99.90;;;;;;5095644;28;20238;-80
2023/05/12 05:31:55;;;;;;;9.43;8.13;;;9.60;99.90;;;;;;5094672;28;20311;-76
2023/05/12 05:34:23;;;;;;;9.30;8.37;;;9.60;99.90;;;;;;5095603;28;20306;-79
2023/05/12 05:36:55;;;;;;;8.47;7.27;;;9.70;99.90;;;;;;5096429;28;20210;-77
2023/05/12 05:39:24;;;;;;;8.40;7.60;;;9.60;99.90;;;;;;5095974;28;20215;-76
2023/05/12 05:41:52;;;;;;;9.17;7.80;;;9.60;99.90;;;;;;5096717;28;20241;-79
2023/05/12 05:44:22;;;;;;;9.63;8.20;;;9.70;99.90;;;;;;5096926;28;20205;-77
2023/05/12 05:46:50;;;;;;;7.87;7.17;;;9.70;99.90;;;;;;5097990;28;20290;-80
2023/05/12 05:49:18;;;;;;;7.63;6.83;;;9.70;99.90;;;;;;5094217;28;20299;-78
2023/05/12 05:51:46;;;;;;;8.13;7.33;;;9.80;99.90;;;;;;5095830;28;20241;-77
2023/05/12 05:54:14;;;;;;;7.40;6.67;;;9.80;99.90;;;;;;5095951;28;20207;-77
2023/05/12 05:56:42;;;;;;;10.17;7.60;;;9.90;99.90;;;;;;5094881;28;20207;-77
2023/05/12 05:59:13;;;;;;;10.27;7.27;;;10.00;99.90;;;;;;5096781;28;20211;-77
2023/05/12 06:01:43;;;;;;;7.40;6.33;;;10.10;99.90;;;;;;5096249;28;20217;-77
2023/05/12 06:04:12;;;;;;;7.10;6.33;;;10.20;99.90;;;;;;5096718;28;20729;-75
2023/05/12 06:06:40;;;;;;;8.23;6.70;;;10.30;99.90;;;;;;5096871;28;20267;-79
2023/05/12 06:09:11;;;;;;;8.13;6.60;;;10.30;99.90;;;;;;5098593;28;20301;-75
2023/05/12 06:11:39;;;;;;;7.57;6.40;;;10.40;99.90;;;;;;5099315;28;20287;-76
2023/05/12 06:14:08;;;;;;;7.40;5.97;;;10.30;99.90;;;;;;5096697;28;20206;-76
2023/05/12 06:16:36;;;;;;;6.07;5.47;;;10.40;99.90;;;;;;5098384;28;20242;-76
2023/05/12 06:19:06;;;;;;;6.37;5.63;;;10.40;99.90;;;;;;5098475;28;20211;-80
2023/05/12 06:21:34;;;;;;;5.93;5.33;;;10.50;99.90;;;;;;5095694;28;20187;-80
2023/05/12 06:24:03;;;;;;;6.67;5.70;;;10.50;99.90;;;;;;5098516;28;20289;-75
2023/05/12 06:26:31;;;;;;;9.47;6.03;;;10.60;99.90;;;;;;5098273;28;20211;-74
2023/05/12 06:29:00;;;;;;;7.53;5.70;;;10.60;99.90;;;;;;5098525;28;20211;-76
2023/05/12 06:31:28;;;;;;;5.60;5.10;;;10.40;99.90;;;;;;5101567;28;20276;-78
2023/05/12 06:33:57;;;;;;;6.87;5.67;;;10.50;99.90;;;;;;5099357;28;20203;-74
2023/05/12 06:36:28;;;;;;;8.03;6.50;;;10.40;99.90;;;;;;5100530;28;20202;-75
2023/05/12 06:38:57;;;;;;;8.47;6.43;;;10.40;99.90;;;;;;5099646;28;20199;-77
2023/05/12 06:41:25;;;;;;;7.13;6.40;;;10.40;99.90;;;;;;5097073;28;20235;-74
2023/05/12 06:43:54;;;;;;;7.13;6.40;;;10.40;99.90;;;;;;5098694;28;20636;-73
2023/05/12 06:46:23;;;;;;;7.90;7.10;;;10.40;99.90;;;;;;5092846;28;20203;-76
2023/05/12 06:48:51;;;;;;;9.03;7.23;;;10.50;99.90;;;;;;5097154;28;20206;-76
2023/05/12 06:51:20;;;;;;;8.37;7.40;;;10.50;99.90;;;;;;5096696;28;20250;-74
2023/05/12 06:53:49;;;;;;;8.80;7.90;;;10.50;99.90;;;;;;5096826;28;20203;-74
2023/05/12 06:56:18;;;;;;;7.97;7.17;;;10.60;99.90;;;;;;5077460;28;20204;-74
2023/05/12 06:58:47;;;;;;;8.83;7.93;;;10.70;99.90;;;;;;5096222;28;20203;-79
2023/05/12 07:01:15;;;;;;;8.13;7.33;;;10.50;99.90;;;;;;5097448;28;20262;-76
2023/05/12 07:03:44;;;;;;;4.87;4.27;;;10.60;99.90;;;;;;5096974;28;20207;-77
2023/05/12 07:06:12;;;;;;;7.40;6.37;;;11.10;99.90;;;;;;5096323;28;20223;-76
2023/05/12 07:08:41;;;;;;;8.37;5.93;;;11.90;99.90;;;;;;5097723;28;20207;-76
2023/05/12 07:11:11;;;;;;;8.40;7.50;;;12.40;99.90;;;;;;5097483;28;20230;-74
2023/05/12 07:13:39;;;;;;;9.37;8.00;;;12.20;99.90;;;;;;5097265;28;20640;-73
2023/05/12 07:16:08;;;;;;;9.60;7.60;;;11.90;99.90;;;;;;5096183;28;20241;-77
2023/05/12 07:18:37;;;;;;;11.73;8.90;;;11.70;99.90;;;;;;5098269;28;20215;-75
2023/05/12 07:21:06;;;;;;;10.67;9.00;;;11.60;99.90;;;;;;5097968;28;20203;-74
2023/05/12 07:23:36;;;;;;;9.50;8.07;;;11.60;99.90;;;;;;5096780;28;20610;-74
2023/05/12 07:26:05;;;;;;;9.40;8.20;;;11.70;99.90;;;;;;5096956;28;20279;-77
2023/05/12 07:28:36;;;;;;;9.67;8.13;;;11.60;99.90;;;;;;5097802;28;20211;-77
2023/05/12 07:31:06;;;;;;;9.43;7.97;;;11.60;99.90;;;;;;5097535;28;20226;-74
2023/05/12 07:33:36;;;;;;;10.13;8.23;;;11.80;99.90;;;;;;5096301;28;20633;-73
2023/05/12 07:36:07;;;;;;;8.27;7.27;;;11.80;99.90;;;;;;5097409;28;20676;-75
2023/05/12 07:38:35;;;;;;;8.73;7.50;;;11.90;99.90;;;;;;5096830;28;20195;-76
2023/05/12 07:41:04;;;;;;;8.60;7.53;;;12.40;99.90;;;;;;5095524;28;20241;-75
2023/05/12 07:43:32;;;;;;;8.70;7.67;;;12.70;99.90;;;;;;5098244;28;20262;-72
2023/05/12 07:46:02;;;;;;;9.53;7.57;;;12.80;99.90;;;;;;5097327;28;20234;-77
2023/05/12 07:48:31;;;;;;;8.03;7.23;;;12.80;99.90;;;;;;5096374;28;20546;-76
2023/05/12 07:51:00;;;;;;;8.60;7.70;;;12.70;99.90;;;;;;5095777;28;20280;-77
2023/05/12 07:53:29;;;;;;;9.93;8.23;;;12.60;99.90;;;;;;5096277;28;20264;-78
2023/05/12 07:55:57;;;;;;;9.90;8.50;;;12.30;99.90;;;;;;5097275;28;20240;-74
2023/05/12 07:58:25;;;;;;;9.37;8.37;;;12.20;99.90;;;;;;5098180;28;20286;-75
2023/05/12 08:00:55;;;;;;;9.73;8.30;;;12.10;99.90;;;;;;5097014;28;20211;-76
2023/05/12 08:03:25;;;;;;;9.73;8.03;;;11.90;99.90;;;;;;5096056;28;20241;-75
2023/05/12 08:05:54;;;;;;;8.57;7.67;;;11.70;99.90;;;;;;5098866;28;20203;-75
2023/05/12 08:08:23;;;;;;;10.00;7.80;;;11.50;99.90;;;;;;5101721;28;20211;-74
2023/05/12 08:10:51;;;;;;;9.63;8.60;;;11.50;99.90;;;;;;5098119;28;20223;-75
2023/05/12 08:13:20;;;;;;;10.83;8.97;;;11.50;99.90;;;;;;5097691;28;20673;-74
2023/05/12 08:15:49;;;;;;;12.20;9.07;;;11.70;99.90;;;;;;5090823;28;20804;-74
2023/05/12 08:18:18;;;;;;;11.23;9.37;;;11.90;99.90;;;;;;5088112;28;20229;-73
2023/05/12 08:20:49;;;;;;;11.17;9.03;;;12.00;99.90;;;;;;5097284;28;20231;-76
2023/05/12 08:23:18;;;;;;;10.37;8.53;;;11.90;99.90;;;;;;5094707;28;20195;-74
2023/05/12 08:25:47;;;;;;;11.33;9.27;;;12.10;99.90;;;;;;5097112;28;20234;-74
2023/05/12 08:28:15;;;;;;;10.90;9.57;;;12.00;99.90;;;;;;5097545;28;20199;-73
2023/05/12 08:30:44;;;;;;;10.20;8.23;;;12.00;99.90;;;;;;5099047;28;20266;-75
2023/05/12 08:33:14;;;;;;;10.43;8.60;;;11.90;99.90;;;;;;5080063;28;20207;-75
2023/05/12 08:35:42;;;;;;;9.80;8.50;;;12.30;99.90;;;;;;5084259;28;20604;-74
2023/05/12 08:38:12;;;;;;;10.47;9.37;;;12.50;99.90;;;;;;5084781;28;20200;-74
2023/05/12 08:40:47;;;;;;;10.50;9.33;;;13.10;99.90;;;;;;5095730;28;20266;-76
2023/05/12 08:43:25;;;;;;;9.53;8.27;;;14.00;99.90;;;;;;5093042;28;20206;-75
2023/05/12 08:45:56;;;;;;;8.43;7.40;;;14.90;99.90;;;;;;5088852;28;20215;-76
2023/05/12 08:48:27;;;;;;;7.80;7.00;;;15.30;99.90;;;;;;5095139;28;20203;-76
2023/05/12 08:50:56;;;;;;;7.60;5.80;;;15.00;99.90;;;;;;5097606;28;20610;-76
2023/05/12 08:53:28;;;;;;;8.87;5.97;;;14.90;99.90;;;;;;5081761;28;20211;-76
2023/05/12 08:56:00;;;;;;;6.77;5.70;;;14.70;99.90;;;;;;5080489;28;20227;-74
2023/05/12 08:58:48;;;;;;;7.00;5.83;;;14.40;99.90;;;;;;5093751;28;20566;-76
2023/05/12 09:01:17;;;;;;;8.00;5.63;;;13.90;99.90;;;;;;5089026;28;20625;-75
2023/05/12 09:03:46;;;;;;;6.13;5.50;;;14.10;99.90;;;;;;5092496;28;20673;-77
2023/05/12 09:06:14;;;;;;;6.50;5.70;;;14.40;99.90;;;;;;5093715;28;20214;-75
2023/05/12 09:08:45;;;;;;;7.03;5.80;;;14.40;99.90;;;;;;5090275;28;20207;-76
2023/05/12 09:11:14;;;;;;;6.50;5.87;;;14.30;99.90;;;;;;5073687;28;20291;-76
2023/05/12 09:13:54;;;;;;;5.83;5.23;;;14.50;99.90;;;;;;5071737;28;20218;-75
2023/05/12 09:16:24;;;;;;;6.00;4.90;;;14.70;99.90;;;;;;5071076;28;20249;-75
2023/05/12 09:18:54;;;;;;;7.47;5.23;;;14.90;99.90;;;;;;5070354;28;20688;-76
2023/05/12 09:21:25;;;;;;;7.33;5.77;;;15.00;99.90;;;;;;5071459;28;20341;-77
2023/05/12 09:23:56;;;;;;;6.17;5.57;;;14.90;99.90;;;;;;5071417;28;20215;-79
2023/05/12 09:26:26;;;;;;;7.00;5.77;;;14.80;99.90;;;;;;5072719;28;20269;-76
2023/05/12 09:29:03;;;;;;;5.70;4.80;;;14.50;99.90;;;;;;5071573;28;20203;-76
2023/05/12 09:31:32;;;;;;;6.70;5.50;;;14.10;99.90;;;;;;5071573;28;20326;-76
2023/05/12 09:34:01;;;;;;;6.03;5.00;;;13.80;99.90;;;;;;5071718;28;20212;-77
2023/05/12 09:36:29;;;;;;;6.73;5.20;;;13.60;99.90;;;;;;5071868;28;20257;-76
2023/05/12 09:39:03;;;;;;;6.83;5.23;;;13.40;99.90;;;;;;5071910;28;20218;-76
2023/05/12 09:41:35;;;;;;;6.30;4.63;;;13.40;99.90;;;;;;5071314;28;20203;-75
2023/05/12 09:44:03;;;;;;;5.23;4.47;;;13.30;99.90;;;;;;5072202;28;20191;-75
2023/05/12 09:46:31;;;;;;;5.27;4.60;;;13.30;99.90;;;;;;5091697;28;20560;-74
2023/05/12 09:49:01;;;;;;;7.03;4.20;;;13.50;99.90;;;;;;5092190;28;20226;-74
2023/05/12 09:51:31;;;;;;;4.53;4.10;;;13.80;99.90;;;;;;5095189;28;20230;-75
2023/05/12 09:54:01;;;;;;;4.10;3.70;;;13.90;99.90;;;;;;5088375;28;20203;-74
2023/05/12 09:56:31;;;;;;;4.30;3.63;;;14.20;99.90;;;;;;5075813;28;20285;-73
2023/05/12 09:59:01;;;;;;;4.50;3.90;;;14.30;99.90;;;;;;5075447;28;20298;-74
2023/05/12 10:01:30;;;;;;;3.90;3.60;;;14.20;99.90;;;;;;5074936;28;20219;-76
2023/05/12 10:03:59;;;;;;;3.83;3.37;;;14.00;99.90;;;;;;5075252;28;20264;-77
2023/05/12 10:06:30;;;;;;;3.90;3.40;;;14.00;99.90;;;;;;5074619;28;20298;-76
2023/05/12 10:09:08;;;;;;;4.30;3.27;;;14.00;99.90;;;;;;5075016;28;20230;-77
2023/05/12 10:11:36;;;;;;;3.67;3.37;;;13.90;99.90;;;;;;5094663;28;20218;-78
2023/05/12 10:14:06;;;;;;;3.87;3.17;;;13.90;99.90;;;;;;5096213;28;20264;-76
2023/05/12 10:16:35;;;;;;;3.47;2.83;;;14.00;99.90;;;;;;5096872;28;20210;-76
2023/05/12 10:19:04;;;;;;;3.77;3.37;;;14.00;99.90;;;;;;5087704;28;20533;-76
2023/05/12 10:21:32;;;;;;;4.80;3.40;;;14.10;99.90;;;;;;5076634;28;20761;-76
2023/05/12 10:24:02;;;;;;;4.50;3.40;;;14.20;99.90;;;;;;5075866;28;20639;-76
2023/05/12 10:26:33;;;;;;;4.60;3.50;;;14.60;99.90;;;;;;5080180;28;20885;-75
2023/05/12 10:29:02;;;;;;;3.67;3.27;;;15.10;99.90;;;;;;5092894;28;20196;-77
2023/05/12 10:31:30;;;;;;;4.27;3.37;;;15.50;99.90;;;;;;5095837;28;20236;-75
2023/05/12 10:34:00;;;;;;;4.97;2.87;;;15.80;99.90;;;;;;5094362;28;20256;-76
2023/05/12 10:36:28;;;;;;;4.67;3.50;;;15.80;99.90;;;;;;5108340;28;20199;-74
2023/05/12 10:39:05;;;;;;;3.97;3.57;;;15.40;99.90;;;;;;5112753;28;20223;-75
2023/05/12 10:41:35;;;;;;;4.80;3.60;;;15.20;99.90;;;;;;5097241;28;20195;-74
2023/05/12 10:44:03;;;;;;;4.10;3.70;;;15.10;99.90;;;;;;5094118;28;20248;-74
2023/05/12 10:46:31;;;;;;;9.30;6.93;;;15.10;99.90;;;;;;5096227;28;20728;-75
2023/05/12 10:49:02;;;;;;;4.97;4.00;;;15.00;99.90;;;;;;5095374;28;20203;-75
2023/05/12 10:51:31;;;;;;;5.53;3.77;;;14.60;99.90;;;;;;5095369;28;20272;-76
2023/05/12 10:54:02;;;;;;;6.40;4.80;;;14.50;99.90;;;;;;5093501;28;20310;-73
2023/05/12 10:56:41;;;;;;;4.90;3.80;;;14.40;99.90;;;;;;5095117;28;20657;-77
2023/05/12 10:59:17;;;;;;;5.77;4.90;;;14.20;99.90;;;;;;5094851;28;20217;-75
2023/05/12 11:02:00;;;;;;;6.57;5.10;;;14.00;99.90;;;;;;5092939;28;20203;-76
2023/05/12 11:04:40;;;;;;;6.63;5.70;;;13.90;99.90;;;;;;5084177;28;20673;-75
2023/05/12 11:07:10;;;;;;;6.03;5.17;;;13.70;99.90;;;;;;5087737;28;20239;-75
2023/05/12 11:09:41;;;;;;;6.60;5.83;;;13.50;99.90;;;;;;5093945;28;20203;-74
2023/05/12 11:12:26;;;;;;;6.37;5.50;;;13.50;99.90;;;;;;5090834;28;20227;-77
2023/05/12 11:14:55;;;;;;;7.40;5.80;;;13.50;99.90;;;;;;5093780;28;20221;-76
2023/05/12 11:17:24;;;;;;;8.20;5.97;;;13.30;99.90;;;;;;5090992;28;20290;-73
2023/05/12 11:19:53;;;;;;;6.67;5.97;;;13.20;99.90;;;;;;5093404;28;20203;-75
2023/05/12 11:22:22;;;;;;;7.43;5.80;;;13.10;99.90;;;;;;5093340;28;20310;-75
2023/05/12 11:24:52;;;;;;;6.63;5.43;;;13.30;99.90;;;;;;5088466;28;20574;-73
2023/05/12 11:27:22;;;;;;;6.10;5.50;;;13.30;99.90;;;;;;5093121;28;20225;-75
2023/05/12 11:29:59;;;;;;;7.13;5.50;;;13.40;99.90;;;;;;5094501;28;20255;-78
2023/05/12 11:32:28;;;;;;;5.87;5.27;;;13.50;99.90;;;;;;5090926;28;20220;-78
2023/05/12 11:35:08;;;;;;;6.40;5.43;;;13.50;99.90;;;;;;5091002;28;20210;-75
2023/05/12 11:37:37;;;;;;;7.57;5.80;;;13.50;99.90;;;;;;5093721;28;20194;-74
2023/05/12 11:40:14;;;;;;;7.17;5.60;;;13.50;99.90;;;;;;5094013;28;20310;-75
2023/05/12 11:42:47;;;;;;;6.60;6.00;;;13.50;99.90;;;;;;5077187;28;20203;-78
2023/05/12 11:45:24;;;;;;;7.60;6.30;;;13.40;99.90;;;;;;5073002;28;20214;-77
2023/05/12 11:47:53;;;;;;;7.00;6.30;;;13.20;99.90;;;;;;5082016;28;20267;-76
2023/05/12 11:50:24;;;;;;;8.70;6.60;;;13.20;99.90;;;;;;5092435;28;20302;-78
2023/05/12 11:52:53;;;;;;;7.80;7.00;;;13.30;99.90;;;;;;5073798;28;20310;-76
2023/05/12 11:55:23;;;;;;;7.93;6.40;;;13.40;99.90;;;;;;5086943;28;20684;-77
2023/05/12 11:58:00;;;;;;;7.23;6.40;;;13.50;99.90;;;;;;5093223;28;20294;-76
2023/05/12 12:00:35;;;;;;;6.57;5.87;;;13.70;99.90;;;;;;5087885;28;20241;-77
2023/05/12 12:03:11;;;;;;;6.80;6.10;;;13.90;99.90;;;;;;5092366;28;20449;-76
2023/05/12 12:05:40;;;;;;;7.03;5.97;;;14.10;99.90;;;;;;5091067;28;20215;-77
2023/05/12 12:08:11;;;;;;;6.17;5.57;;;14.30;99.90;;;;;;5091545;28;20310;-77
2023/05/12 12:10:40;;;;;;;5.47;4.97;;;14.40;99.90;;;;;;5092317;28;20207;-78
2023/05/12 12:13:08;;;;;;;5.37;4.87;;;14.90;99.90;;;;;;5091498;28;20211;-78
2023/05/12 12:15:38;;;;;;;5.43;4.80;;;15.00;99.90;;;;;;5092230;28;20661;-78
2023/05/12 12:18:07;;;;;;;5.23;4.70;;;15.10;99.90;;;;;;5091470;28;20312;-76
2023/05/12 12:20:35;;;;;;;5.23;4.50;;;15.50;99.90;;;;;;5092360;28;20236;-74
2023/05/12 12:23:03;;;;;;;4.17;3.77;;;15.90;99.90;;;;;;5090916;28;20227;-75
2023/05/12 12:25:31;;;;;;;4.10;3.60;;;15.80;99.90;;;;;;5089546;28;20671;-75
2023/05/12 12:27:59;;;;;;;3.53;3.23;;;15.80;99.90;;;;;;5092016;28;20215;-77
2023/05/12 12:30:27;;;;;;;4.60;3.50;;;15.90;99.90;;;;;;5092152;28;20223;-76
2023/05/12 12:32:57;;;;;;;4.47;3.50;;;15.80;99.90;;;;;;5091500;28;20230;-76
2023/05/12 12:35:25;;;;;;;4.70;3.23;;;15.80;99.90;;;;;;5085002;28;20218;-74
2023/05/12 12:37:54;;;;;;;4.00;3.60;;;15.30;99.90;;;;;;5086447;28;20668;-74
2023/05/12 12:40:22;;;;;;;4.03;3.30;;;15.40;99.90;;;;;;5091988;28;20203;-77
2023/05/12 12:42:50;;;;;;;3.90;3.10;;;15.40;99.90;;;;;;5091124;28;20294;-76
2023/05/12 12:45:18;;;;;;;4.37;3.27;;;15.60;99.90;;;;;;5090582;28;20207;-75
2023/05/12 12:47:50;;;;;;;3.90;3.40;;;15.50;99.90;;;;;;5088115;28;20630;-77
2023/05/12 12:50:20;;;;;;;4.53;3.90;;;15.30;99.90;;;;;;5088613;28;20685;-78
2023/05/12 12:52:50;;;;;;;4.70;4.07;;;14.80;99.90;;;;;;5091122;28;20285;-75
2023/05/12 12:55:18;;;;;;;6.10;4.03;;;14.30;99.90;;;;;;5088877;28;20203;-76
2023/05/12 12:57:47;;;;;;;5.33;3.90;;;14.20;99.90;;;;;;5087632;28;20203;-80